createdAt,value
2023-05-04T00:00:07.324Z,4.27
2023-05-04T00:02:34.568Z,4.20
2023-05-04T00:05:01.827Z,4.20
2023-05-04T00:07:28.393Z,3.70
2023-05-04T00:09:54.896Z,4.23
2023-05-04T00:12:21.387Z,4.30
2023-05-04T00:14:48.017Z,4.43
2023-05-04T00:17:14.537Z,4.00
2023-05-04T00:19:42.419Z,3.80
2023-05-04T00:22:09.638Z,3.70
2023-05-04T00:24:36.379Z,3.70
2023-05-04T00:27:03.059Z,4.00
2023-05-04T00:29:29.768Z,3.93
2023-05-04T00:31:56.723Z,3.87
2023-05-04T00:34:23.959Z,3.77
2023-05-04T00:36:50.585Z,4.27
2023-05-04T00:39:17.273Z,4.10
2023-05-04T00:41:44.687Z,3.60
2023-05-04T00:44:11.363Z,4.37
2023-05-04T00:46:38.134Z,4.43
2023-05-04T00:49:05.678Z,3.87
2023-05-04T00:51:32.639Z,3.90
2023-05-04T00:53:59.330Z,4.03
2023-05-04T00:56:26.092Z,3.90
2023-05-04T00:58:54.533Z,4.17
2023-05-04T01:01:24.608Z,3.90
2023-05-04T01:03:51.810Z,4.00
2023-05-04T01:06:26.583Z,4.07
2023-05-04T01:09:00.174Z,3.80
2023-05-04T01:11:37.157Z,3.87
2023-05-04T01:14:04.206Z,3.90
2023-05-04T01:16:30.825Z,4.30
2023-05-04T01:18:57.730Z,3.90
2023-05-04T01:21:24.213Z,4.10
2023-05-04T01:23:51.120Z,4.03
2023-05-04T01:26:32.286Z,3.90
2023-05-04T01:29:08.113Z,4.30
2023-05-04T01:31:35.569Z,4.40
2023-05-04T01:34:03.237Z,4.07
2023-05-04T01:36:30.168Z,4.03
2023-05-04T01:38:58.500Z,4.20
2023-05-04T01:41:25.150Z,3.97
2023-05-04T01:43:51.663Z,3.70
2023-05-04T01:46:18.230Z,4.33
2023-05-04T01:48:44.707Z,4.13
2023-05-04T01:51:11.558Z,3.80
2023-05-04T01:53:38.152Z,3.80
2023-05-04T01:56:04.766Z,4.10
2023-05-04T01:58:32.216Z,3.90
2023-05-04T02:00:59.523Z,3.97
2023-05-04T02:03:26.715Z,4.07
2023-05-04T02:05:53.285Z,3.97
2023-05-04T02:08:19.780Z,4.23
2023-05-04T02:10:47.118Z,3.90
2023-05-04T02:13:13.686Z,4.67
2023-05-04T02:15:40.957Z,3.93
2023-05-04T02:18:07.512Z,4.33
2023-05-04T02:20:34.140Z,4.40
2023-05-04T02:23:01.043Z,4.37
2023-05-04T02:25:27.570Z,4.30
2023-05-04T02:27:54.111Z,4.27
2023-05-04T02:30:20.805Z,4.43
2023-05-04T02:32:47.345Z,4.70
2023-05-04T02:35:14.004Z,4.40
2023-05-04T02:37:40.824Z,4.33
2023-05-04T02:40:07.891Z,4.60
2023-05-04T02:42:34.694Z,4.47
2023-05-04T02:45:01.168Z,4.70
2023-05-04T02:47:27.668Z,4.43
2023-05-04T02:49:54.164Z,4.23
2023-05-04T02:52:20.693Z,4.40
2023-05-04T02:54:47.173Z,4.53
2023-05-04T02:57:13.644Z,4.53
2023-05-04T02:59:40.129Z,4.60
2023-05-04T03:02:06.585Z,4.63
2023-05-04T03:04:33.280Z,5.10
2023-05-04T03:06:59.767Z,4.47
2023-05-04T03:09:26.713Z,4.60
2023-05-04T03:11:53.200Z,4.67
2023-05-04T03:14:20.131Z,5.10
2023-05-04T03:16:47.377Z,4.80
2023-05-04T03:19:13.987Z,5.03
2023-05-04T03:21:40.470Z,4.90
2023-05-04T03:24:07.035Z,4.40
2023-05-04T03:26:33.591Z,4.83
2023-05-04T03:29:00.146Z,4.73
2023-05-04T03:31:26.666Z,4.80
2023-05-04T03:33:53.195Z,4.60
2023-05-04T03:36:19.915Z,4.77
2023-05-04T03:38:47.018Z,4.77
2023-05-04T03:41:13.780Z,5.17
2023-05-04T03:43:42.776Z,5.20
2023-05-04T03:46:09.407Z,5.17
2023-05-04T03:48:35.931Z,4.30
2023-05-04T03:51:04.821Z,5.03
2023-05-04T03:53:31.332Z,4.70
2023-05-04T03:55:57.870Z,5.23
2023-05-04T03:58:24.436Z,4.70
2023-05-04T04:00:50.934Z,4.90
2023-05-04T04:03:17.820Z,5.60
2023-05-04T04:05:44.494Z,5.20
2023-05-04T04:08:11.157Z,5.00
2023-05-04T04:10:38.158Z,5.17
2023-05-04T04:13:05.185Z,5.10
2023-05-04T04:15:31.723Z,6.03
2023-05-04T04:17:58.317Z,5.10
2023-05-04T04:20:24.864Z,5.60
2023-05-04T04:22:51.984Z,5.50
2023-05-04T04:25:21.520Z,5.70
2023-05-04T04:27:48.313Z,5.37
2023-05-04T04:30:14.949Z,5.60
2023-05-04T04:32:41.499Z,5.70
2023-05-04T04:35:08.299Z,5.77
2023-05-04T04:37:34.822Z,4.90
2023-05-04T04:40:01.640Z,6.17
2023-05-04T04:42:28.252Z,5.97
2023-05-04T04:44:54.789Z,5.47
2023-05-04T04:47:21.333Z,4.97
2023-05-04T04:49:47.967Z,5.27
2023-05-04T04:52:15.661Z,5.20
2023-05-04T04:54:42.412Z,5.20
2023-05-04T04:57:10.000Z,6.30
2023-05-04T04:59:38.217Z,5.60
2023-05-04T05:02:05.173Z,5.40
2023-05-04T05:04:32.175Z,5.50
2023-05-04T05:06:59.992Z,5.20
2023-05-04T05:09:26.819Z,5.27
2023-05-04T05:11:53.351Z,5.33
2023-05-04T05:14:19.843Z,6.17
2023-05-04T05:16:46.409Z,5.40
2023-05-04T05:19:13.401Z,5.37
2023-05-04T05:21:39.917Z,5.70
2023-05-04T05:24:06.646Z,5.10
2023-05-04T05:26:34.043Z,5.67
2023-05-04T05:29:00.909Z,5.00
2023-05-04T05:31:27.866Z,5.23
2023-05-04T05:34:00.076Z,5.90
2023-05-04T05:36:27.377Z,5.10
2023-05-04T05:38:53.914Z,5.43
2023-05-04T05:41:22.814Z,5.10
2023-05-04T05:43:49.408Z,4.97
2023-05-04T05:46:16.061Z,5.90
2023-05-04T05:48:43.372Z,5.70
2023-05-04T05:51:09.877Z,4.60
2023-05-04T05:53:36.753Z,5.70
2023-05-04T05:56:03.371Z,5.03
2023-05-04T05:58:30.013Z,5.47
2023-05-04T06:00:56.491Z,5.87
2023-05-04T06:03:23.447Z,5.00
2023-05-04T06:05:50.031Z,5.13
2023-05-04T06:08:16.531Z,5.50
2023-05-04T06:10:43.249Z,5.13
2023-05-04T06:13:09.797Z,5.43
2023-05-04T06:15:36.761Z,5.47
2023-05-04T06:18:03.384Z,5.33
2023-05-04T06:20:29.995Z,5.53
2023-05-04T06:22:57.127Z,5.20
2023-05-04T06:25:23.591Z,5.70
2023-05-04T06:27:50.082Z,5.10
2023-05-04T06:30:16.668Z,5.40
2023-05-04T06:32:43.487Z,5.27
2023-05-04T06:35:10.654Z,6.67
2023-05-04T06:37:37.523Z,5.70
2023-05-04T06:40:05.446Z,6.07
2023-05-04T06:42:32.007Z,5.27
2023-05-04T06:44:58.734Z,6.30
2023-05-04T06:47:25.259Z,5.70
2023-05-04T06:49:51.854Z,5.10
2023-05-04T06:52:18.383Z,4.90
2023-05-04T06:54:44.894Z,5.60
2023-05-04T06:57:11.539Z,5.10
2023-05-04T06:59:38.032Z,6.00
2023-05-04T07:02:04.568Z,6.23
2023-05-04T07:04:31.959Z,5.97
2023-05-04T07:06:58.466Z,5.30
2023-05-04T07:09:24.952Z,6.00
2023-05-04T07:11:51.750Z,5.63
2023-05-04T07:14:18.222Z,5.93
2023-05-04T07:16:44.856Z,5.70
2023-05-04T07:19:11.676Z,5.10
2023-05-04T07:21:38.164Z,5.03
2023-05-04T07:24:05.313Z,6.13
2023-05-04T07:26:31.805Z,5.17
2023-05-04T07:28:58.294Z,6.33
2023-05-04T07:31:24.848Z,6.07
2023-05-04T07:33:51.490Z,5.60
2023-05-04T07:36:18.279Z,4.87
2023-05-04T07:38:44.816Z,5.47
2023-05-04T07:41:11.376Z,5.47
2023-05-04T07:43:37.823Z,4.80
2023-05-04T07:46:04.370Z,4.87
2023-05-04T07:48:30.929Z,5.37
2023-05-04T07:50:57.845Z,5.40
2023-05-04T07:53:26.555Z,5.80
2023-05-04T07:55:57.613Z,4.60
2023-05-04T07:58:24.474Z,4.70
2023-05-04T08:00:50.953Z,4.37
2023-05-04T08:03:17.523Z,5.13
2023-05-04T08:05:44.508Z,4.73
2023-05-04T08:08:11.027Z,4.77
2023-05-04T08:10:37.711Z,4.37
2023-05-04T08:13:05.139Z,4.67
2023-05-04T08:15:32.147Z,4.40
2023-05-04T08:17:58.739Z,3.93
2023-05-04T08:20:25.292Z,4.27
2023-05-04T08:22:52.166Z,4.37
2023-05-04T08:25:18.766Z,3.97
2023-05-04T08:27:45.671Z,5.10
2023-05-04T08:30:12.513Z,4.00
2023-05-04T08:32:39.078Z,4.63
2023-05-04T08:35:06.803Z,4.10
2023-05-04T08:37:33.510Z,4.57
2023-05-04T08:40:00.051Z,4.20
2023-05-04T08:42:28.085Z,5.07
2023-05-04T08:44:56.048Z,3.80
2023-05-04T08:47:22.878Z,3.30
2023-05-04T08:49:49.861Z,3.70
2023-05-04T08:52:17.121Z,3.90
2023-05-04T08:54:44.995Z,3.47
2023-05-04T08:57:12.482Z,3.07
2023-05-04T08:59:39.477Z,3.70
2023-05-04T09:02:06.197Z,3.30
2023-05-04T09:04:33.295Z,3.10
2023-05-04T09:06:59.792Z,3.53
2023-05-04T09:09:27.890Z,3.10
2023-05-04T09:11:54.495Z,4.30
2023-05-04T09:14:22.456Z,6.20
2023-05-04T09:16:49.080Z,3.70
2023-05-04T09:19:19.115Z,3.53
2023-05-04T09:21:46.588Z,2.90
2023-05-04T09:24:13.228Z,3.17
2023-05-04T09:26:39.818Z,3.33
2023-05-04T09:29:13.765Z,3.70
2023-05-04T09:31:44.277Z,4.20
2023-05-04T09:34:10.768Z,3.27
2023-05-04T09:36:38.294Z,3.53
2023-05-04T09:39:11.581Z,4.00
2023-05-04T09:41:38.219Z,3.90
2023-05-04T09:44:17.274Z,3.93
2023-05-04T09:46:51.753Z,3.77
2023-05-04T09:49:21.101Z,4.30
2023-05-04T09:51:47.968Z,3.40
2023-05-04T09:54:16.190Z,3.30
2023-05-04T09:56:46.360Z,4.23
2023-05-04T09:59:12.996Z,3.60
2023-05-04T10:01:39.491Z,3.70
2023-05-04T10:04:06.200Z,3.80
2023-05-04T10:06:33.134Z,3.63
2023-05-04T10:09:00.742Z,4.23
2023-05-04T10:11:27.516Z,3.87
2023-05-04T10:14:00.404Z,4.07
2023-05-04T10:16:36.516Z,3.77
2023-05-04T10:19:22.685Z,4.20
2023-05-04T10:22:02.028Z,3.70
2023-05-04T10:24:34.443Z,3.53
2023-05-04T10:27:19.215Z,3.40
2023-05-04T10:29:50.617Z,4.03
2023-05-04T10:32:21.852Z,4.60
2023-05-04T10:34:48.536Z,4.70
2023-05-04T10:37:19.731Z,3.50
2023-05-04T10:39:53.760Z,3.70
2023-05-04T10:42:20.838Z,3.40
2023-05-04T10:44:55.317Z,3.90
2023-05-04T10:47:33.123Z,3.33
2023-05-04T10:50:04.845Z,3.53
2023-05-04T10:52:32.139Z,3.50
2023-05-04T10:54:59.668Z,3.30
2023-05-04T10:57:28.500Z,3.23
2023-05-04T10:59:57.301Z,3.57
2023-05-04T11:02:31.701Z,3.90
2023-05-04T11:05:04.829Z,3.70
2023-05-04T11:07:38.384Z,3.70
2023-05-04T11:10:09.803Z,3.50
2023-05-04T11:12:37.791Z,3.30
2023-05-04T11:15:09.562Z,2.90
2023-05-04T11:17:52.175Z,3.33
2023-05-04T11:20:22.494Z,2.70
2023-05-04T11:22:49.350Z,3.57
2023-05-04T11:25:17.157Z,3.07
2023-05-04T11:27:44.382Z,3.07
2023-05-04T11:30:11.191Z,3.10
2023-05-04T11:32:38.909Z,4.10
2023-05-04T11:35:07.972Z,3.30
2023-05-04T11:37:39.333Z,2.83
2023-05-04T11:40:17.509Z,2.90
2023-05-04T11:42:44.500Z,3.13
2023-05-04T11:45:21.514Z,3.10
2023-05-04T11:47:48.577Z,3.10
2023-05-04T11:50:16.341Z,3.13
2023-05-04T11:52:43.562Z,2.80
2023-05-04T11:55:29.347Z,2.40
2023-05-04T11:57:59.358Z,2.50
2023-05-04T12:00:40.114Z,2.83
2023-05-04T12:03:08.293Z,2.50
2023-05-04T12:05:37.816Z,2.93
2023-05-04T12:08:04.800Z,2.73
2023-05-04T12:10:33.601Z,2.70
2023-05-04T12:13:00.316Z,3.53
2023-05-04T12:15:39.221Z,3.17
2023-05-04T12:18:05.807Z,2.80
2023-05-04T12:20:32.446Z,3.00
2023-05-04T12:23:05.284Z,2.77
2023-05-04T12:25:31.759Z,2.67
2023-05-04T12:27:58.258Z,2.50
2023-05-04T12:30:24.784Z,3.00
2023-05-04T12:32:52.143Z,2.63
2023-05-04T12:35:18.614Z,2.60
2023-05-04T12:37:45.555Z,2.83
2023-05-04T12:40:27.879Z,2.50
2023-05-04T12:42:55.362Z,2.90
2023-05-04T12:45:22.872Z,2.53
2023-05-04T12:47:49.518Z,2.23
2023-05-04T12:50:16.164Z,2.20
2023-05-04T12:52:42.730Z,2.93
2023-05-04T12:55:09.339Z,2.10
2023-05-04T12:57:36.288Z,2.30
2023-05-04T13:00:02.971Z,2.30
2023-05-04T13:02:29.952Z,2.20
2023-05-04T13:04:56.476Z,2.63
2023-05-04T13:07:23.300Z,2.57
2023-05-04T13:09:49.847Z,2.27
2023-05-04T13:12:16.351Z,2.63
2023-05-04T13:14:43.106Z,2.40
2023-05-04T13:17:09.658Z,2.50
2023-05-04T13:19:36.798Z,1.97
2023-05-04T13:22:03.833Z,2.17
2023-05-04T13:24:30.353Z,2.60
2023-05-04T13:26:56.828Z,2.10
2023-05-04T13:29:23.330Z,2.50
2023-05-04T13:31:50.309Z,2.60
2023-05-04T13:34:16.830Z,1.90
2023-05-04T13:36:43.377Z,3.00
2023-05-04T13:39:09.860Z,2.50
2023-05-04T13:41:36.887Z,2.37
2023-05-04T13:44:03.360Z,2.50
2023-05-04T13:46:29.932Z,2.40
2023-05-04T13:48:57.179Z,2.10
2023-05-04T13:51:23.804Z,2.60
2023-05-04T13:53:50.291Z,2.73
2023-05-04T13:56:16.916Z,2.43
2023-05-04T13:58:43.585Z,2.20
2023-05-04T14:01:10.482Z,2.33
2023-05-04T14:03:37.038Z,2.37
2023-05-04T14:06:03.853Z,2.40
2023-05-04T14:08:30.682Z,2.40
2023-05-04T14:10:59.362Z,2.40
2023-05-04T14:13:25.882Z,2.70
2023-05-04T14:15:52.447Z,2.40
2023-05-04T14:18:18.995Z,2.53
2023-05-04T14:20:45.867Z,2.10
2023-05-04T14:23:12.396Z,2.47
2023-05-04T14:25:39.007Z,3.10
2023-05-04T14:28:05.573Z,3.63
2023-05-04T14:30:32.556Z,5.93
2023-05-04T14:32:59.571Z,3.90
2023-05-04T14:35:26.132Z,2.10
2023-05-04T14:37:53.380Z,2.33
2023-05-04T14:40:19.958Z,2.10
2023-05-04T14:42:47.249Z,2.17
2023-05-04T14:45:13.848Z,1.93
2023-05-04T14:47:42.676Z,2.17
2023-05-04T14:50:09.655Z,2.00
2023-05-04T14:52:36.446Z,2.20
2023-05-04T14:55:04.329Z,1.97
2023-05-04T14:57:30.824Z,2.27
2023-05-04T14:59:57.440Z,2.20
2023-05-04T15:02:24.014Z,2.13
2023-05-04T15:04:50.547Z,2.10
2023-05-04T15:07:20.663Z,2.00
2023-05-04T15:09:47.973Z,1.80
2023-05-04T15:12:14.449Z,1.77
2023-05-04T15:14:41.098Z,2.07
2023-05-04T15:17:07.729Z,2.23
2023-05-04T15:19:36.312Z,2.13
2023-05-04T15:22:02.828Z,1.97
2023-05-04T15:24:29.403Z,2.13
2023-05-04T15:26:55.965Z,2.40
2023-05-04T15:29:22.470Z,2.30
2023-05-04T15:31:49.078Z,2.03
2023-05-04T15:34:18.264Z,2.33
2023-05-04T15:36:45.420Z,2.60
2023-05-04T15:39:11.983Z,2.13
2023-05-04T15:41:38.526Z,2.40
2023-05-04T15:44:08.215Z,2.33
2023-05-04T15:46:35.110Z,2.80
2023-05-04T15:49:01.712Z,2.13
2023-05-04T15:51:29.931Z,2.37
2023-05-04T15:53:56.436Z,2.00
2023-05-04T15:56:23.003Z,2.30
2023-05-04T15:58:49.495Z,2.30
2023-05-04T16:01:16.029Z,2.10
2023-05-04T16:03:43.298Z,2.17
2023-05-04T16:06:10.058Z,2.50
2023-05-04T16:08:39.315Z,2.30
2023-05-04T16:11:07.743Z,2.20
2023-05-04T16:13:35.456Z,2.23
2023-05-04T16:16:02.189Z,2.40
2023-05-04T16:18:28.665Z,2.60
2023-05-04T16:20:55.491Z,2.30
2023-05-04T16:23:21.988Z,2.30
2023-05-04T16:25:48.525Z,2.00
2023-05-04T16:28:14.993Z,2.10
2023-05-04T16:30:43.009Z,2.03
2023-05-04T16:33:09.576Z,2.47
2023-05-04T16:35:36.826Z,2.83
2023-05-04T16:38:04.098Z,2.30
2023-05-04T16:40:33.515Z,2.97
2023-05-04T16:43:00.153Z,2.53
2023-05-04T16:45:31.354Z,2.20
2023-05-04T16:47:58.832Z,1.90
2023-05-04T16:50:25.515Z,2.37
2023-05-04T16:52:52.010Z,2.20
2023-05-04T16:55:19.150Z,2.30
2023-05-04T16:57:46.174Z,1.80
2023-05-04T17:00:13.742Z,2.17
2023-05-04T17:02:40.340Z,2.23
2023-05-04T17:05:07.050Z,2.13
2023-05-04T17:07:34.223Z,2.23
2023-05-04T17:10:03.018Z,2.27
2023-05-04T17:12:31.228Z,2.13
2023-05-04T17:14:57.789Z,2.07
2023-05-04T17:17:24.301Z,1.90
2023-05-04T17:19:50.802Z,2.13
2023-05-04T17:22:17.620Z,2.20
2023-05-04T17:24:45.556Z,2.47
2023-05-04T17:27:12.866Z,2.20
2023-05-04T17:29:41.191Z,2.33
2023-05-04T17:32:10.943Z,2.10
2023-05-04T17:34:37.804Z,2.63
2023-05-04T17:37:04.286Z,2.30
2023-05-04T17:39:32.166Z,2.30
2023-05-04T17:41:59.035Z,2.27
2023-05-04T17:44:26.176Z,2.10
2023-05-04T17:46:52.649Z,2.50
2023-05-04T17:49:22.032Z,2.40
2023-05-04T17:51:49.439Z,2.10
2023-05-04T17:54:17.194Z,3.13
2023-05-04T17:56:43.852Z,2.90
2023-05-04T17:59:10.335Z,2.50
2023-05-04T18:01:37.189Z,2.27
2023-05-04T18:04:04.276Z,2.60
2023-05-04T18:06:32.054Z,2.57
2023-05-04T18:08:59.074Z,2.50
2023-05-04T18:11:25.570Z,2.50
2023-05-04T18:13:52.686Z,2.60
2023-05-04T18:16:19.613Z,2.50
2023-05-04T18:18:46.219Z,4.23
2023-05-04T18:21:14.908Z,3.20
2023-05-04T18:23:41.951Z,3.80
2023-05-04T18:26:08.641Z,2.77
2023-05-04T18:28:35.226Z,2.57
2023-05-04T18:31:02.007Z,2.37
2023-05-04T18:33:28.470Z,2.87
2023-05-04T18:35:54.916Z,2.50
2023-05-04T18:38:21.398Z,2.80
2023-05-04T18:40:52.005Z,2.70
2023-05-04T18:43:18.676Z,2.90
2023-05-04T18:45:45.189Z,2.90
2023-05-04T18:48:11.662Z,2.77
2023-05-04T18:50:38.150Z,2.93
2023-05-04T18:53:06.271Z,2.90
2023-05-04T18:55:32.800Z,2.60
2023-05-04T18:58:01.251Z,2.83
2023-05-04T19:00:28.059Z,2.70
2023-05-04T19:02:54.593Z,3.10
2023-05-04T19:05:21.353Z,2.83
2023-05-04T19:07:50.090Z,2.80
2023-05-04T19:10:16.621Z,2.73
2023-05-04T19:12:43.183Z,3.00
2023-05-04T19:15:09.810Z,2.90
2023-05-04T19:17:36.323Z,2.80
2023-05-04T19:20:03.284Z,2.77
2023-05-04T19:22:30.993Z,2.83
2023-05-04T19:24:57.511Z,2.90
2023-05-04T19:27:24.005Z,2.57
2023-05-04T19:29:50.882Z,2.70
2023-05-04T19:32:24.151Z,2.60
2023-05-04T19:34:51.941Z,2.70
2023-05-04T19:37:18.848Z,3.27
2023-05-04T19:39:45.329Z,2.63
2023-05-04T19:42:11.894Z,2.90
2023-05-04T19:44:38.318Z,2.87
2023-05-04T19:47:04.952Z,3.03
2023-05-04T19:49:31.572Z,3.00
2023-05-04T19:51:58.029Z,2.83
2023-05-04T19:54:24.582Z,2.80
2023-05-04T19:56:51.074Z,3.03
2023-05-04T19:59:17.664Z,2.90
2023-05-04T20:01:44.123Z,3.10
2023-05-04T20:04:11.073Z,2.87
2023-05-04T20:06:37.653Z,3.10
2023-05-04T20:09:04.220Z,2.60
2023-05-04T20:11:31.057Z,2.83
2023-05-04T20:13:57.609Z,2.83
2023-05-04T20:16:24.147Z,3.20
2023-05-04T20:18:50.655Z,2.80
2023-05-04T20:21:17.140Z,3.00
2023-05-04T20:23:43.931Z,2.93
2023-05-04T20:26:10.439Z,3.40
2023-05-04T20:28:36.874Z,3.23
2023-05-04T20:31:03.553Z,3.50
2023-05-04T20:33:29.996Z,3.27
2023-05-04T20:35:56.435Z,2.83
2023-05-04T20:38:22.884Z,3.20
2023-05-04T20:40:50.446Z,3.20
2023-05-04T20:43:18.503Z,2.90
2023-05-04T20:45:44.959Z,2.67
2023-05-04T20:48:11.541Z,3.10
2023-05-04T20:50:40.070Z,3.30
2023-05-04T20:53:06.549Z,3.37
2023-05-04T20:55:33.220Z,3.10
2023-05-04T20:57:59.871Z,3.00
2023-05-04T21:00:26.463Z,3.13
2023-05-04T21:02:53.006Z,3.60
2023-05-04T21:05:19.595Z,3.73
2023-05-04T21:07:46.680Z,3.70
2023-05-04T21:10:13.164Z,3.50
2023-05-04T21:12:39.775Z,3.53
2023-05-04T21:15:06.513Z,3.77
2023-05-04T21:17:33.025Z,3.40
2023-05-04T21:19:59.502Z,3.23
2023-05-04T21:22:27.068Z,3.40
2023-05-04T21:24:53.539Z,3.17
2023-05-04T21:27:20.075Z,3.40
2023-05-04T21:29:46.551Z,3.43
2023-05-04T21:32:13.041Z,3.50
2023-05-04T21:34:39.539Z,3.70
2023-05-04T21:37:06.371Z,3.37
2023-05-04T21:39:32.830Z,3.50
2023-05-04T21:41:59.339Z,3.60
2023-05-04T21:44:25.909Z,3.70
2023-05-04T21:46:52.642Z,3.67
2023-05-04T21:49:19.376Z,3.37
2023-05-04T21:51:46.051Z,3.90
2023-05-04T21:54:12.506Z,3.73
2023-05-04T21:56:40.271Z,3.30
2023-05-04T21:59:07.049Z,3.20
2023-05-04T22:01:33.524Z,3.40
2023-05-04T22:04:00.145Z,3.50
2023-05-04T22:06:27.278Z,3.50
2023-05-04T22:08:53.761Z,3.40
2023-05-04T22:11:20.330Z,3.40
2023-05-04T22:13:46.818Z,3.47
2023-05-04T22:16:13.321Z,3.33
2023-05-04T22:18:39.908Z,3.40
2023-05-04T22:21:06.627Z,3.90
2023-05-04T22:23:33.142Z,3.13
2023-05-04T22:25:59.770Z,3.60
2023-05-04T22:28:26.391Z,3.63
2023-05-04T22:30:53.072Z,3.60
2023-05-04T22:33:20.049Z,3.23
2023-05-04T22:35:47.330Z,3.30
2023-05-04T22:38:14.726Z,3.83
2023-05-04T22:40:42.860Z,5.20
2023-05-04T22:43:09.500Z,4.90
2023-05-04T22:45:38.507Z,5.30
2023-05-04T22:48:05.371Z,3.50
2023-05-04T22:50:34.739Z,4.23
2023-05-04T22:53:01.278Z,3.43
2023-05-04T22:55:27.860Z,4.00
2023-05-04T22:57:54.442Z,4.00
2023-05-04T23:00:21.012Z,3.30
2023-05-04T23:02:47.600Z,3.30
2023-05-04T23:05:14.749Z,3.70
2023-05-04T23:07:41.259Z,3.47
2023-05-04T23:10:08.569Z,3.30
2023-05-04T23:12:35.235Z,3.40
2023-05-04T23:15:04.119Z,3.37
2023-05-04T23:17:30.634Z,3.13
2023-05-04T23:19:57.540Z,3.33
2023-05-04T23:22:24.050Z,3.30
2023-05-04T23:24:50.549Z,3.30
2023-05-04T23:27:17.578Z,3.57
2023-05-04T23:29:44.240Z,3.50
2023-05-04T23:32:10.762Z,3.57
2023-05-04T23:34:37.296Z,3.37
2023-05-04T23:37:04.216Z,3.33
2023-05-04T23:39:30.703Z,3.17
2023-05-04T23:41:57.519Z,3.40
2023-05-04T23:44:23.994Z,3.60
2023-05-04T23:46:50.650Z,3.37
2023-05-04T23:49:17.199Z,3.20
2023-05-04T23:51:43.830Z,3.50
2023-05-04T23:54:10.316Z,3.53
2023-05-04T23:56:36.834Z,3.97
2023-05-04T23:59:04.401Z,3.23
